sensor_id;sensor_type;location;lat;lon;timestamp;P1;durP1;ratioP1;P2;durP2;ratioP2
9374;SDS011;4727;51.202;6.344;2022-10-19T00:02:23;9.53;;;5.93;;
9374;SDS011;4727;51.202;6.344;2022-10-19T00:04:48;13.70;;;6.10;;
9374;SDS011;4727;51.202;6.344;2022-10-19T00:07:14;8.97;;;5.67;;
9374;SDS011;4727;51.202;6.344;2022-10-19T00:09:41;8.17;;;6.67;;
9374;SDS011;4727;51.202;6.344;2022-10-19T00:12:08;9.63;;;6.03;;
9374;SDS011;4727;51.202;6.344;2022-10-19T00:14:33;10.57;;;6.50;;
9374;SDS011;4727;51.202;6.344;2022-10-19T00:16:59;11.93;;;6.67;;
9374;SDS011;4727;51.202;6.344;2022-10-19T00:19:25;11.80;;;6.13;;
9374;SDS011;4727;51.202;6.344;2022-10-19T00:21:52;14.27;;;7.10;;
9374;SDS011;4727;51.202;6.344;2022-10-19T00:24:18;9.33;;;6.37;;
9374;SDS011;4727;51.202;6.344;2022-10-19T00:26:44;9.47;;;5.97;;
9374;SDS011;4727;51.202;6.344;2022-10-19T00:29:10;11.30;;;6.43;;
9374;SDS011;4727;51.202;6.344;2022-10-19T00:31:37;10.03;;;7.03;;
9374;SDS011;4727;51.202;6.344;2022-10-19T00:34:03;9.23;;;6.37;;
9374;SDS011;4727;51.202;6.344;2022-10-19T00:36:30;9.70;;;5.93;;
9374;SDS011;4727;51.202;6.344;2022-10-19T00:38:58;9.10;;;6.50;;
9374;SDS011;4727;51.202;6.344;2022-10-19T00:41:25;10.13;;;6.67;;
9374;SDS011;4727;51.202;6.344;2022-10-19T00:46:21;13.17;;;6.57;;
9374;SDS011;4727;51.202;6.344;2022-10-19T00:48:47;11.70;;;6.60;;
9374;SDS011;4727;51.202;6.344;2022-10-19T00:51:14;15.30;;;7.40;;
9374;SDS011;4727;51.202;6.344;2022-10-19T00:53:40;10.47;;;6.63;;
9374;SDS011;4727;51.202;6.344;2022-10-19T00:56:08;12.17;;;6.90;;
9374;SDS011;4727;51.202;6.344;2022-10-19T00:58:37;8.80;;;6.37;;
9374;SDS011;4727;51.202;6.344;2022-10-19T01:01:05;13.13;;;6.60;;
9374;SDS011;4727;51.202;6.344;2022-10-19T01:03:34;9.83;;;6.63;;
9374;SDS011;4727;51.202;6.344;2022-10-19T01:06:00;8.40;;;6.37;;
9374;SDS011;4727;51.202;6.344;2022-10-19T01:08:27;9.10;;;6.60;;
9374;SDS011;4727;51.202;6.344;2022-10-19T01:14:11;12.20;;;7.00;;
9374;SDS011;4727;51.202;6.344;2022-10-19T01:21:50;10.70;;;6.93;;
9374;SDS011;4727;51.202;6.344;2022-10-19T01:33:17;10.73;;;6.70;;
9374;SDS011;4727;51.202;6.344;2022-10-19T01:36:03;10.10;;;7.43;;
9374;SDS011;4727;51.202;6.344;2022-10-19T01:39:12;11.77;;;7.17;;
9374;SDS011;4727;51.202;6.344;2022-10-19T01:41:59;9.27;;;6.60;;
9374;SDS011;4727;51.202;6.344;2022-10-19T01:44:52;10.47;;;6.30;;
9374;SDS011;4727;51.202;6.344;2022-10-19T01:47:26;11.10;;;7.37;;
9374;SDS011;4727;51.202;6.344;2022-10-19T01:50:05;9.27;;;6.97;;
9374;SDS011;4727;51.202;6.344;2022-10-19T01:52:37;10.30;;;6.27;;
9374;SDS011;4727;51.202;6.344;2022-10-19T01:55:06;10.47;;;6.37;;
9374;SDS011;4727;51.202;6.344;2022-10-19T01:57:36;9.90;;;6.77;;
9374;SDS011;4727;51.202;6.344;2022-10-19T02:00:04;9.30;;;7.00;;
9374;SDS011;4727;51.202;6.344;2022-10-19T02:02:35;11.50;;;6.77;;
9374;SDS011;4727;51.202;6.344;2022-10-19T02:05:03;12.97;;;7.23;;
9374;SDS011;4727;51.202;6.344;2022-10-19T02:07:30;14.27;;;7.73;;
9374;SDS011;4727;51.202;6.344;2022-10-19T02:09:57;9.87;;;7.77;;
9374;SDS011;4727;51.202;6.344;2022-10-19T02:12:23;13.40;;;8.10;;
9374;SDS011;4727;51.202;6.344;2022-10-19T02:14:51;11.03;;;8.17;;
9374;SDS011;4727;51.202;6.344;2022-10-19T02:17:23;12.17;;;8.20;;
9374;SDS011;4727;51.202;6.344;2022-10-19T02:19:56;13.17;;;7.97;;
9374;SDS011;4727;51.202;6.344;2022-10-19T02:22:22;11.93;;;7.30;;
9374;SDS011;4727;51.202;6.344;2022-10-19T02:24:48;10.87;;;7.17;;
9374;SDS011;4727;51.202;6.344;2022-10-19T02:27:14;8.67;;;7.30;;
9374;SDS011;4727;51.202;6.344;2022-10-19T02:29:40;11.23;;;7.10;;
9374;SDS011;4727;51.202;6.344;2022-10-19T02:32:05;11.37;;;7.67;;
9374;SDS011;4727;51.202;6.344;2022-10-19T02:34:31;11.63;;;7.60;;
9374;SDS011;4727;51.202;6.344;2022-10-19T02:36:59;12.70;;;8.30;;
9374;SDS011;4727;51.202;6.344;2022-10-19T02:39:24;11.37;;;7.70;;
9374;SDS011;4727;51.202;6.344;2022-10-19T02:41:51;10.63;;;7.03;;
9374;SDS011;4727;51.202;6.344;2022-10-19T02:44:33;11.40;;;7.10;;
9374;SDS011;4727;51.202;6.344;2022-10-19T02:47:09;8.53;;;7.20;;
9374;SDS011;4727;51.202;6.344;2022-10-19T02:49:39;12.40;;;8.03;;
9374;SDS011;4727;51.202;6.344;2022-10-19T02:52:07;13.23;;;7.67;;
9374;SDS011;4727;51.202;6.344;2022-10-19T02:54:34;9.83;;;7.43;;
9374;SDS011;4727;51.202;6.344;2022-10-19T02:57:01;10.53;;;6.90;;
9374;SDS011;4727;51.202;6.344;2022-10-19T02:59:29;12.47;;;7.20;;
9374;SDS011;4727;51.202;6.344;2022-10-19T03:01:55;11.47;;;6.60;;
9374;SDS011;4727;51.202;6.344;2022-10-19T03:04:20;13.60;;;7.37;;
9374;SDS011;4727;51.202;6.344;2022-10-19T03:06:46;11.60;;;7.20;;
9374;SDS011;4727;51.202;6.344;2022-10-19T03:09:11;10.43;;;7.83;;
9374;SDS011;4727;51.202;6.344;2022-10-19T03:11:37;13.50;;;7.50;;
9374;SDS011;4727;51.202;6.344;2022-10-19T03:14:02;9.87;;;7.17;;
9374;SDS011;4727;51.202;6.344;2022-10-19T03:16:28;9.40;;;7.03;;
9374;SDS011;4727;51.202;6.344;2022-10-19T03:18:53;12.00;;;6.97;;
9374;SDS011;4727;51.202;6.344;2022-10-19T03:21:19;12.37;;;7.40;;
9374;SDS011;4727;51.202;6.344;2022-10-19T03:23:44;15.40;;;8.23;;
9374;SDS011;4727;51.202;6.344;2022-10-19T03:26:11;8.77;;;7.27;;
9374;SDS011;4727;51.202;6.344;2022-10-19T03:28:39;12.43;;;7.67;;
9374;SDS011;4727;51.202;6.344;2022-10-19T03:31:04;11.53;;;7.90;;
9374;SDS011;4727;51.202;6.344;2022-10-19T03:33:30;12.80;;;8.90;;
9374;SDS011;4727;51.202;6.344;2022-10-19T03:38:53;14.93;;;8.67;;
9374;SDS011;4727;51.202;6.344;2022-10-19T03:41:20;18.40;;;9.43;;
9374;SDS011;4727;51.202;6.344;2022-10-19T03:43:47;13.27;;;8.80;;
9374;SDS011;4727;51.202;6.344;2022-10-19T03:46:13;12.47;;;9.23;;
9374;SDS011;4727;51.202;6.344;2022-10-19T03:48:39;13.27;;;9.03;;
9374;SDS011;4727;51.202;6.344;2022-10-19T03:51:06;15.70;;;9.40;;
9374;SDS011;4727;51.202;6.344;2022-10-19T03:53:33;11.53;;;8.67;;
9374;SDS011;4727;51.202;6.344;2022-10-19T03:56:03;13.27;;;9.00;;
9374;SDS011;4727;51.202;6.344;2022-10-19T03:58:35;14.33;;;10.07;;
9374;SDS011;4727;51.202;6.344;2022-10-19T04:01:05;17.37;;;10.27;;
9374;SDS011;4727;51.202;6.344;2022-10-19T04:03:39;12.43;;;9.20;;
9374;SDS011;4727;51.202;6.344;2022-10-19T04:06:23;13.03;;;9.07;;
9374;SDS011;4727;51.202;6.344;2022-10-19T04:08:51;14.23;;;8.87;;
9374;SDS011;4727;51.202;6.344;2022-10-19T04:11:18;11.13;;;9.03;;
9374;SDS011;4727;51.202;6.344;2022-10-19T04:13:46;13.73;;;9.47;;
9374;SDS011;4727;51.202;6.344;2022-10-19T04:16:14;12.53;;;9.53;;
9374;SDS011;4727;51.202;6.344;2022-10-19T04:18:40;14.10;;;9.80;;
9374;SDS011;4727;51.202;6.344;2022-10-19T04:21:05;17.97;;;9.70;;
9374;SDS011;4727;51.202;6.344;2022-10-19T04:23:32;13.73;;;10.60;;
9374;SDS011;4727;51.202;6.344;2022-10-19T04:26:03;18.83;;;10.53;;
9374;SDS011;4727;51.202;6.344;2022-10-19T04:28:31;17.83;;;10.30;;
9374;SDS011;4727;51.202;6.344;2022-10-19T04:31:00;18.13;;;11.23;;
9374;SDS011;4727;51.202;6.344;2022-10-19T04:33:27;17.87;;;10.70;;
9374;SDS011;4727;51.202;6.344;2022-10-19T04:35:59;17.70;;;11.50;;
9374;SDS011;4727;51.202;6.344;2022-10-19T04:38:28;20.70;;;12.23;;
9374;SDS011;4727;51.202;6.344;2022-10-19T04:40:54;19.90;;;11.43;;
9374;SDS011;4727;51.202;6.344;2022-10-19T04:43:20;21.53;;;12.67;;
9374;SDS011;4727;51.202;6.344;2022-10-19T04:45:46;18.60;;;11.30;;
9374;SDS011;4727;51.202;6.344;2022-10-19T04:48:12;18.60;;;12.27;;
9374;SDS011;4727;51.202;6.344;2022-10-19T04:50:37;23.23;;;13.27;;
9374;SDS011;4727;51.202;6.344;2022-10-19T04:53:03;21.90;;;13.17;;
9374;SDS011;4727;51.202;6.344;2022-10-19T04:55:28;20.93;;;12.80;;
9374;SDS011;4727;51.202;6.344;2022-10-19T04:57:54;22.90;;;13.03;;
9374;SDS011;4727;51.202;6.344;2022-10-19T05:00:19;23.43;;;13.53;;
9374;SDS011;4727;51.202;6.344;2022-10-19T05:02:45;22.03;;;13.27;;
9374;SDS011;4727;51.202;6.344;2022-10-19T05:05:12;26.00;;;14.23;;
9374;SDS011;4727;51.202;6.344;2022-10-19T05:07:38;20.87;;;13.60;;
9374;SDS011;4727;51.202;6.344;2022-10-19T05:10:04;23.67;;;13.67;;
9374;SDS011;4727;51.202;6.344;2022-10-19T05:12:31;19.80;;;13.77;;
9374;SDS011;4727;51.202;6.344;2022-10-19T05:14:58;23.17;;;13.93;;
9374;SDS011;4727;51.202;6.344;2022-10-19T05:17:23;20.00;;;14.00;;
9374;SDS011;4727;51.202;6.344;2022-10-19T05:19:49;20.63;;;14.50;;
9374;SDS011;4727;51.202;6.344;2022-10-19T05:22:14;17.90;;;13.73;;
9374;SDS011;4727;51.202;6.344;2022-10-19T05:24:40;19.43;;;13.03;;
9374;SDS011;4727;51.202;6.344;2022-10-19T05:27:05;18.93;;;13.80;;
9374;SDS011;4727;51.202;6.344;2022-10-19T05:29:31;22.97;;;13.50;;
9374;SDS011;4727;51.202;6.344;2022-10-19T05:31:57;20.13;;;13.37;;
9374;SDS011;4727;51.202;6.344;2022-10-19T05:34:23;20.80;;;13.20;;
9374;SDS011;4727;51.202;6.344;2022-10-19T05:36:49;18.40;;;13.13;;
9374;SDS011;4727;51.202;6.344;2022-10-19T05:39:15;18.43;;;13.33;;
9374;SDS011;4727;51.202;6.344;2022-10-19T05:41:45;16.57;;;13.00;;
9374;SDS011;4727;51.202;6.344;2022-10-19T05:44:15;23.83;;;14.63;;
9374;SDS011;4727;51.202;6.344;2022-10-19T05:46:42;19.20;;;13.43;;
9374;SDS011;4727;51.202;6.344;2022-10-19T05:49:09;19.60;;;13.20;;
9374;SDS011;4727;51.202;6.344;2022-10-19T05:51:36;23.53;;;13.87;;
9374;SDS011;4727;51.202;6.344;2022-10-19T05:54:02;22.07;;;14.57;;
9374;SDS011;4727;51.202;6.344;2022-10-19T05:56:29;19.60;;;13.47;;
9374;SDS011;4727;51.202;6.344;2022-10-19T05:58:56;19.83;;;14.23;;
9374;SDS011;4727;51.202;6.344;2022-10-19T06:01:23;20.47;;;13.80;;
9374;SDS011;4727;51.202;6.344;2022-10-19T06:03:50;18.97;;;13.73;;
9374;SDS011;4727;51.202;6.344;2022-10-19T06:06:17;27.50;;;14.47;;
9374;SDS011;4727;51.202;6.344;2022-10-19T06:08:43;20.07;;;13.80;;
9374;SDS011;4727;51.202;6.344;2022-10-19T06:11:13;21.07;;;13.80;;
9374;SDS011;4727;51.202;6.344;2022-10-19T06:13:41;22.23;;;13.10;;
9374;SDS011;4727;51.202;6.344;2022-10-19T06:16:07;20.37;;;14.40;;
9374;SDS011;4727;51.202;6.344;2022-10-19T06:18:34;22.40;;;14.57;;
9374;SDS011;4727;51.202;6.344;2022-10-19T06:21:01;23.17;;;13.43;;
9374;SDS011;4727;51.202;6.344;2022-10-19T06:23:28;17.80;;;13.73;;
9374;SDS011;4727;51.202;6.344;2022-10-19T06:25:54;20.60;;;13.77;;
9374;SDS011;4727;51.202;6.344;2022-10-19T06:28:20;18.53;;;13.83;;
9374;SDS011;4727;51.202;6.344;2022-10-19T06:30:45;19.90;;;12.80;;
9374;SDS011;4727;51.202;6.344;2022-10-19T06:33:11;16.77;;;13.23;;
9374;SDS011;4727;51.202;6.344;2022-10-19T06:35:37;18.73;;;13.83;;
9374;SDS011;4727;51.202;6.344;2022-10-19T06:38:02;15.20;;;12.77;;
9374;SDS011;4727;51.202;6.344;2022-10-19T06:40:28;18.83;;;13.20;;
9374;SDS011;4727;51.202;6.344;2022-10-19T06:42:54;21.13;;;13.90;;
9374;SDS011;4727;51.202;6.344;2022-10-19T06:45:20;18.20;;;13.43;;
9374;SDS011;4727;51.202;6.344;2022-10-19T06:47:46;20.07;;;13.53;;
9374;SDS011;4727;51.202;6.344;2022-10-19T06:50:11;22.60;;;15.00;;
9374;SDS011;4727;51.202;6.344;2022-10-19T06:52:37;19.53;;;14.17;;
9374;SDS011;4727;51.202;6.344;2022-10-19T06:55:04;19.83;;;14.23;;
9374;SDS011;4727;51.202;6.344;2022-10-19T06:57:30;23.10;;;14.67;;
9374;SDS011;4727;51.202;6.344;2022-10-19T06:59:56;19.30;;;14.00;;
9374;SDS011;4727;51.202;6.344;2022-10-19T07:02:21;22.80;;;14.60;;
9374;SDS011;4727;51.202;6.344;2022-10-19T07:04:47;22.70;;;15.43;;
9374;SDS011;4727;51.202;6.344;2022-10-19T07:07:13;24.20;;;14.07;;
9374;SDS011;4727;51.202;6.344;2022-10-19T07:09:39;21.97;;;15.13;;
9374;SDS011;4727;51.202;6.344;2022-10-19T07:12:04;22.27;;;15.03;;
9374;SDS011;4727;51.202;6.344;2022-10-19T07:14:30;20.07;;;15.40;;
9374;SDS011;4727;51.202;6.344;2022-10-19T07:17:02;20.43;;;15.00;;
9374;SDS011;4727;51.202;6.344;2022-10-19T07:19:28;23.77;;;16.13;;
9374;SDS011;4727;51.202;6.344;2022-10-19T07:21:54;20.87;;;15.13;;
9374;SDS011;4727;51.202;6.344;2022-10-19T07:24:20;20.00;;;15.33;;
9374;SDS011;4727;51.202;6.344;2022-10-19T07:26:45;24.20;;;15.73;;
9374;SDS011;4727;51.202;6.344;2022-10-19T07:29:11;30.20;;;15.70;;
9374;SDS011;4727;51.202;6.344;2022-10-19T07:31:36;23.03;;;15.77;;
9374;SDS011;4727;51.202;6.344;2022-10-19T07:34:02;24.33;;;16.43;;
9374;SDS011;4727;51.202;6.344;2022-10-19T07:36:30;22.10;;;15.70;;
9374;SDS011;4727;51.202;6.344;2022-10-19T07:38:57;25.43;;;15.90;;
9374;SDS011;4727;51.202;6.344;2022-10-19T07:41:24;25.90;;;17.27;;
9374;SDS011;4727;51.202;6.344;2022-10-19T07:43:50;21.03;;;16.37;;
9374;SDS011;4727;51.202;6.344;2022-10-19T07:46:17;24.70;;;17.00;;
9374;SDS011;4727;51.202;6.344;2022-10-19T07:48:44;28.40;;;17.17;;
9374;SDS011;4727;51.202;6.344;2022-10-19T07:51:11;23.83;;;15.73;;
9374;SDS011;4727;51.202;6.344;2022-10-19T07:53:38;26.87;;;17.43;;
9374;SDS011;4727;51.202;6.344;2022-10-19T07:56:05;23.20;;;17.07;;
9374;SDS011;4727;51.202;6.344;2022-10-19T07:58:32;22.10;;;16.47;;
9374;SDS011;4727;51.202;6.344;2022-10-19T08:03:28;23.90;;;17.10;;
9374;SDS011;4727;51.202;6.344;2022-10-19T08:05:58;22.83;;;16.83;;
9374;SDS011;4727;51.202;6.344;2022-10-19T08:08:24;23.47;;;15.43;;
9374;SDS011;4727;51.202;6.344;2022-10-19T08:10:50;27.17;;;17.23;;
9374;SDS011;4727;51.202;6.344;2022-10-19T08:13:16;23.03;;;16.20;;
9374;SDS011;4727;51.202;6.344;2022-10-19T08:15:41;25.60;;;16.77;;
9374;SDS011;4727;51.202;6.344;2022-10-19T08:18:07;21.63;;;15.80;;
9374;SDS011;4727;51.202;6.344;2022-10-19T08:20:32;21.80;;;17.17;;
9374;SDS011;4727;51.202;6.344;2022-10-19T08:22:58;21.60;;;15.43;;
9374;SDS011;4727;51.202;6.344;2022-10-19T08:25:24;22.87;;;16.93;;
9374;SDS011;4727;51.202;6.344;2022-10-19T08:27:49;25.33;;;17.10;;
9374;SDS011;4727;51.202;6.344;2022-10-19T08:30:15;22.63;;;15.27;;
9374;SDS011;4727;51.202;6.344;2022-10-19T08:32:40;22.60;;;16.77;;
9374;SDS011;4727;51.202;6.344;2022-10-19T08:35:06;21.17;;;15.97;;
9374;SDS011;4727;51.202;6.344;2022-10-19T08:37:32;26.87;;;15.87;;
9374;SDS011;4727;51.202;6.344;2022-10-19T08:39:57;20.70;;;15.17;;
9374;SDS011;4727;51.202;6.344;2022-10-19T08:42:26;21.30;;;16.10;;
9374;SDS011;4727;51.202;6.344;2022-10-19T08:50:47;19.33;;;13.60;;
9374;SDS011;4727;51.202;6.344;2022-10-19T08:53:21;19.97;;;14.57;;
9374;SDS011;4727;51.202;6.344;2022-10-19T08:58:59;19.83;;;13.60;;
9374;SDS011;4727;51.202;6.344;2022-10-19T09:01:51;16.57;;;13.73;;
9374;SDS011;4727;51.202;6.344;2022-10-19T09:04:34;17.73;;;13.97;;
9374;SDS011;4727;51.202;6.344;2022-10-19T09:07:09;19.47;;;14.87;;
9374;SDS011;4727;51.202;6.344;2022-10-19T09:09:43;24.10;;;16.23;;
9374;SDS011;4727;51.202;6.344;2022-10-19T09:12:13;18.77;;;15.27;;
9374;SDS011;4727;51.202;6.344;2022-10-19T09:14:55;18.33;;;16.17;;
9374;SDS011;4727;51.202;6.344;2022-10-19T09:17:24;20.87;;;15.43;;
9374;SDS011;4727;51.202;6.344;2022-10-19T09:19:50;20.40;;;15.30;;
9374;SDS011;4727;51.202;6.344;2022-10-19T09:22:18;21.20;;;15.67;;
9374;SDS011;4727;51.202;6.344;2022-10-19T09:24:48;18.10;;;14.50;;
9374;SDS011;4727;51.202;6.344;2022-10-19T09:27:34;19.07;;;13.63;;
9374;SDS011;4727;51.202;6.344;2022-10-19T09:30:04;14.77;;;12.83;;
9374;SDS011;4727;51.202;6.344;2022-10-19T09:32:37;21.07;;;15.30;;
9374;SDS011;4727;51.202;6.344;2022-10-19T09:35:18;16.73;;;13.33;;
9374;SDS011;4727;51.202;6.344;2022-10-19T09:38:01;19.43;;;14.37;;
9374;SDS011;4727;51.202;6.344;2022-10-19T09:40:29;17.00;;;13.57;;
9374;SDS011;4727;51.202;6.344;2022-10-19T09:42:55;21.10;;;14.77;;
9374;SDS011;4727;51.202;6.344;2022-10-19T09:48:13;15.30;;;12.93;;
9374;SDS011;4727;51.202;6.344;2022-10-19T09:50:55;16.87;;;12.83;;
9374;SDS011;4727;51.202;6.344;2022-10-19T09:53:24;18.10;;;12.80;;
9374;SDS011;4727;51.202;6.344;2022-10-19T09:58:31;17.70;;;12.63;;
9374;SDS011;4727;51.202;6.344;2022-10-19T10:00:57;14.60;;;12.10;;
9374;SDS011;4727;51.202;6.344;2022-10-19T10:05:55;16.13;;;11.87;;
9374;SDS011;4727;51.202;6.344;2022-10-19T10:08:34;14.60;;;10.80;;
9374;SDS011;4727;51.202;6.344;2022-10-19T10:13:47;14.23;;;11.27;;
9374;SDS011;4727;51.202;6.344;2022-10-19T10:16:15;14.43;;;11.97;;
9374;SDS011;4727;51.202;6.344;2022-10-19T10:18:50;17.20;;;10.87;;
9374;SDS011;4727;51.202;6.344;2022-10-19T10:23:57;12.80;;;10.17;;
9374;SDS011;4727;51.202;6.344;2022-10-19T10:26:26;13.40;;;9.73;;
9374;SDS011;4727;51.202;6.344;2022-10-19T10:28:52;12.80;;;9.77;;
9374;SDS011;4727;51.202;6.344;2022-10-19T10:31:24;14.20;;;9.40;;
9374;SDS011;4727;51.202;6.344;2022-10-19T10:34:01;11.93;;;9.40;;
9374;SDS011;4727;51.202;6.344;2022-10-19T10:36:28;11.83;;;8.20;;
9374;SDS011;4727;51.202;6.344;2022-10-19T10:39:05;12.37;;;8.10;;
9374;SDS011;4727;51.202;6.344;2022-10-19T10:41:36;14.60;;;8.57;;
9374;SDS011;4727;51.202;6.344;2022-10-19T10:44:08;11.37;;;7.47;;
9374;SDS011;4727;51.202;6.344;2022-10-19T10:46:55;12.77;;;7.33;;
9374;SDS011;4727;51.202;6.344;2022-10-19T10:49:23;17.33;;;7.23;;
9374;SDS011;4727;51.202;6.344;2022-10-19T10:51:59;8.73;;;7.17;;
9374;SDS011;4727;51.202;6.344;2022-10-19T10:54:29;12.07;;;7.73;;
9374;SDS011;4727;51.202;6.344;2022-10-19T10:57:15;16.23;;;7.83;;
9374;SDS011;4727;51.202;6.344;2022-10-19T11:02:26;11.97;;;7.33;;
9374;SDS011;4727;51.202;6.344;2022-10-19T11:05:15;14.70;;;7.93;;
9374;SDS011;4727;51.202;6.344;2022-10-19T11:07:43;14.87;;;7.60;;
9374;SDS011;4727;51.202;6.344;2022-10-19T11:10:58;12.47;;;7.87;;
9374;SDS011;4727;51.202;6.344;2022-10-19T11:16:11;10.73;;;6.57;;
9374;SDS011;4727;51.202;6.344;2022-10-19T11:18:46;11.73;;;7.17;;
9374;SDS011;4727;51.202;6.344;2022-10-19T11:27:13;13.77;;;8.00;;
9374;SDS011;4727;51.202;6.344;2022-10-19T11:29:58;11.73;;;7.60;;
9374;SDS011;4727;51.202;6.344;2022-10-19T11:46:24;10.27;;;5.50;;
9374;SDS011;4727;51.202;6.344;2022-10-19T11:49:04;7.83;;;5.80;;
9374;SDS011;4727;51.202;6.344;2022-10-19T11:51:51;9.47;;;5.80;;
9374;SDS011;4727;51.202;6.344;2022-10-19T11:57:12;9.13;;;6.13;;
9374;SDS011;4727;51.202;6.344;2022-10-19T11:59:57;6.10;;;5.10;;
9374;SDS011;4727;51.202;6.344;2022-10-19T12:07:50;9.30;;;5.10;;
9374;SDS011;4727;51.202;6.344;2022-10-19T12:10:31;7.80;;;4.80;;
9374;SDS011;4727;51.202;6.344;2022-10-19T12:13:00;9.20;;;5.63;;
9374;SDS011;4727;51.202;6.344;2022-10-19T12:18:24;8.17;;;4.13;;
9374;SDS011;4727;51.202;6.344;2022-10-19T12:21:12;8.70;;;4.30;;
9374;SDS011;4727;51.202;6.344;2022-10-19T12:23:39;10.20;;;4.27;;
9374;SDS011;4727;51.202;6.344;2022-10-19T12:26:09;7.43;;;4.50;;
9374;SDS011;4727;51.202;6.344;2022-10-19T12:28:42;6.07;;;4.50;;
9374;SDS011;4727;51.202;6.344;2022-10-19T12:31:19;7.07;;;4.60;;
9374;SDS011;4727;51.202;6.344;2022-10-19T12:36:34;5.20;;;3.93;;
9374;SDS011;4727;51.202;6.344;2022-10-19T12:42:08;5.93;;;4.40;;
9374;SDS011;4727;51.202;6.344;2022-10-19T12:45:05;8.00;;;4.20;;
9374;SDS011;4727;51.202;6.344;2022-10-19T12:47:38;6.53;;;4.20;;
9374;SDS011;4727;51.202;6.344;2022-10-19T12:50:04;6.10;;;3.93;;
9374;SDS011;4727;51.202;6.344;2022-10-19T12:52:52;6.23;;;4.10;;
9374;SDS011;4727;51.202;6.344;2022-10-19T12:57:48;5.43;;;3.60;;
9374;SDS011;4727;51.202;6.344;2022-10-19T13:00:27;5.53;;;3.80;;
9374;SDS011;4727;51.202;6.344;2022-10-19T13:05:36;7.00;;;4.00;;
9374;SDS011;4727;51.202;6.344;2022-10-19T13:08:06;7.77;;;4.97;;
9374;SDS011;4727;51.202;6.344;2022-10-19T13:10:33;7.10;;;4.60;;
9374;SDS011;4727;51.202;6.344;2022-10-19T13:12:59;9.03;;;4.80;;
9374;SDS011;4727;51.202;6.344;2022-10-19T13:18:00;8.87;;;4.93;;
9374;SDS011;4727;51.202;6.344;2022-10-19T13:25:28;3.80;;;2.93;;
9374;SDS011;4727;51.202;6.344;2022-10-19T13:36:08;6.27;;;2.70;;
9374;SDS011;4727;51.202;6.344;2022-10-19T13:41:13;4.40;;;2.90;;
9374;SDS011;4727;51.202;6.344;2022-10-19T13:44:00;3.50;;;2.33;;
9374;SDS011;4727;51.202;6.344;2022-10-19T14:00:22;5.50;;;2.70;;
9374;SDS011;4727;51.202;6.344;2022-10-19T14:11:20;4.67;;;3.07;;
9374;SDS011;4727;51.202;6.344;2022-10-19T14:14:05;4.10;;;2.40;;
9374;SDS011;4727;51.202;6.344;2022-10-19T14:16:31;4.47;;;2.50;;
9374;SDS011;4727;51.202;6.344;2022-10-19T14:18:57;5.13;;;2.83;;
9374;SDS011;4727;51.202;6.344;2022-10-19T14:21:32;4.43;;;2.43;;
9374;SDS011;4727;51.202;6.344;2022-10-19T14:24:00;5.30;;;2.67;;
9374;SDS011;4727;51.202;6.344;2022-10-19T14:26:27;2.50;;;2.20;;
9374;SDS011;4727;51.202;6.344;2022-10-19T14:28:55;5.87;;;2.53;;
9374;SDS011;4727;51.202;6.344;2022-10-19T14:31:24;3.50;;;2.60;;
9374;SDS011;4727;51.202;6.344;2022-10-19T14:33:59;3.80;;;2.50;;
9374;SDS011;4727;51.202;6.344;2022-10-19T14:36:29;5.40;;;2.70;;
9374;SDS011;4727;51.202;6.344;2022-10-19T14:39:01;4.20;;;2.70;;
9374;SDS011;4727;51.202;6.344;2022-10-19T14:43:58;7.77;;;2.63;;
9374;SDS011;4727;51.202;6.344;2022-10-19T14:46:33;7.50;;;2.80;;
9374;SDS011;4727;51.202;6.344;2022-10-19T14:48:59;6.87;;;2.80;;
9374;SDS011;4727;51.202;6.344;2022-10-19T14:54:22;6.30;;;2.57;;
9374;SDS011;4727;51.202;6.344;2022-10-19T14:57:00;4.67;;;2.30;;
9374;SDS011;4727;51.202;6.344;2022-10-19T14:59:33;4.90;;;2.23;;
9374;SDS011;4727;51.202;6.344;2022-10-19T15:05:04;5.43;;;2.60;;
9374;SDS011;4727;51.202;6.344;2022-10-19T15:07:38;2.97;;;2.30;;
9374;SDS011;4727;51.202;6.344;2022-10-19T15:10:07;3.90;;;2.43;;
9374;SDS011;4727;51.202;6.344;2022-10-19T15:12:43;4.27;;;2.70;;
9374;SDS011;4727;51.202;6.344;2022-10-19T15:15:18;6.37;;;2.83;;
9374;SDS011;4727;51.202;6.344;2022-10-19T15:18:01;6.43;;;2.50;;
9374;SDS011;4727;51.202;6.344;2022-10-19T15:20:33;4.80;;;2.50;;
9374;SDS011;4727;51.202;6.344;2022-10-19T15:25:59;4.67;;;2.70;;
9374;SDS011;4727;51.202;6.344;2022-10-19T15:31:00;5.07;;;3.17;;
9374;SDS011;4727;51.202;6.344;2022-10-19T15:33:29;6.80;;;3.13;;
9374;SDS011;4727;51.202;6.344;2022-10-19T15:36:06;4.40;;;2.80;;
9374;SDS011;4727;51.202;6.344;2022-10-19T15:38:41;5.57;;;3.20;;
9374;SDS011;4727;51.202;6.344;2022-10-19T15:41:27;5.33;;;2.90;;
9374;SDS011;4727;51.202;6.344;2022-10-19T15:43:58;7.83;;;3.10;;
9374;SDS011;4727;51.202;6.344;2022-10-19T15:46:28;6.33;;;3.43;;
9374;SDS011;4727;51.202;6.344;2022-10-19T15:48:57;4.47;;;2.97;;
9374;SDS011;4727;51.202;6.344;2022-10-19T15:51:33;5.10;;;3.17;;
9374;SDS011;4727;51.202;6.344;2022-10-19T15:54:01;6.40;;;3.13;;
9374;SDS011;4727;51.202;6.344;2022-10-19T15:56:31;7.03;;;3.27;;
9374;SDS011;4727;51.202;6.344;2022-10-19T15:58:59;7.37;;;2.70;;
9374;SDS011;4727;51.202;6.344;2022-10-19T16:01:27;6.60;;;3.07;;
9374;SDS011;4727;51.202;6.344;2022-10-19T16:03:55;5.40;;;3.03;;
9374;SDS011;4727;51.202;6.344;2022-10-19T16:06:22;8.10;;;3.40;;
9374;SDS011;4727;51.202;6.344;2022-10-19T16:08:50;4.87;;;3.20;;
9374;SDS011;4727;51.202;6.344;2022-10-19T16:11:18;5.50;;;3.00;;
9374;SDS011;4727;51.202;6.344;2022-10-19T16:13:45;6.03;;;3.17;;
9374;SDS011;4727;51.202;6.344;2022-10-19T16:16:12;4.43;;;3.03;;
9374;SDS011;4727;51.202;6.344;2022-10-19T16:18:44;6.47;;;3.47;;
9374;SDS011;4727;51.202;6.344;2022-10-19T16:21:10;4.77;;;3.40;;
9374;SDS011;4727;51.202;6.344;2022-10-19T16:23:36;5.53;;;3.17;;
9374;SDS011;4727;51.202;6.344;2022-10-19T16:26:03;4.67;;;3.40;;
9374;SDS011;4727;51.202;6.344;2022-10-19T16:28:29;9.10;;;3.70;;
9374;SDS011;4727;51.202;6.344;2022-10-19T16:30:55;6.70;;;3.30;;
9374;SDS011;4727;51.202;6.344;2022-10-19T16:33:21;6.07;;;3.10;;
9374;SDS011;4727;51.202;6.344;2022-10-19T16:35:47;6.23;;;3.47;;
9374;SDS011;4727;51.202;6.344;2022-10-19T16:38:13;7.27;;;3.43;;
9374;SDS011;4727;51.202;6.344;2022-10-19T16:40:39;4.17;;;3.50;;
9374;SDS011;4727;51.202;6.344;2022-10-19T16:43:04;5.60;;;3.70;;
9374;SDS011;4727;51.202;6.344;2022-10-19T16:45:30;5.23;;;3.50;;
9374;SDS011;4727;51.202;6.344;2022-10-19T16:47:56;5.63;;;3.93;;
9374;SDS011;4727;51.202;6.344;2022-10-19T16:50:22;4.77;;;3.60;;
9374;SDS011;4727;51.202;6.344;2022-10-19T16:52:53;9.60;;;3.77;;
9374;SDS011;4727;51.202;6.344;2022-10-19T16:55:28;5.17;;;3.83;;
9374;SDS011;4727;51.202;6.344;2022-10-19T16:57:54;8.57;;;3.33;;
9374;SDS011;4727;51.202;6.344;2022-10-19T17:00:20;10.53;;;3.80;;
9374;SDS011;4727;51.202;6.344;2022-10-19T17:02:46;8.33;;;3.40;;
9374;SDS011;4727;51.202;6.344;2022-10-19T17:05:11;9.30;;;4.37;;
9374;SDS011;4727;51.202;6.344;2022-10-19T17:07:37;7.00;;;4.10;;
9374;SDS011;4727;51.202;6.344;2022-10-19T17:10:03;9.57;;;4.00;;
9374;SDS011;4727;51.202;6.344;2022-10-19T17:12:29;5.97;;;3.60;;
9374;SDS011;4727;51.202;6.344;2022-10-19T17:14:54;6.83;;;3.90;;
9374;SDS011;4727;51.202;6.344;2022-10-19T17:17:20;10.53;;;4.53;;
9374;SDS011;4727;51.202;6.344;2022-10-19T17:19:45;6.90;;;4.20;;
9374;SDS011;4727;51.202;6.344;2022-10-19T17:22:12;8.80;;;4.40;;
9374;SDS011;4727;51.202;6.344;2022-10-19T17:24:38;8.57;;;4.30;;
9374;SDS011;4727;51.202;6.344;2022-10-19T17:27:04;8.60;;;4.60;;
9374;SDS011;4727;51.202;6.344;2022-10-19T17:29:29;9.23;;;4.53;;
9374;SDS011;4727;51.202;6.344;2022-10-19T17:31:55;9.43;;;4.60;;
9374;SDS011;4727;51.202;6.344;2022-10-19T17:34:21;8.90;;;4.43;;
9374;SDS011;4727;51.202;6.344;2022-10-19T17:36:46;6.57;;;4.27;;
9374;SDS011;4727;51.202;6.344;2022-10-19T17:39:13;11.37;;;5.10;;
9374;SDS011;4727;51.202;6.344;2022-10-19T17:41:42;8.83;;;4.97;;
9374;SDS011;4727;51.202;6.344;2022-10-19T17:44:08;7.47;;;5.37;;